Time;durP1;ratioP1;P1;durP2;ratioP2;P2;SDS_P1;SDS_P2;PMS_P1;PMS_P2;Temp;Humidity;BMP_temperature;BMP_pressure;BME280_temperature;BME280_humidity;BME280_pressure;Samples;Min_cycle;Max_cycle;Signal;HPM_P1;HPM_P2
2022/11/13 00:00:20;;;;;;;6.7;3.7;;;;;;;;;;;;;
2022/11/13 00:02:49;;;;;;;5.1;3.8;;;;;;;;;;;;;
2022/11/13 00:05:25;;;;;;;5.4;3.8;;;;;;;;;;;;;
2022/11/13 00:08:00;;;;;;;4.6;3.6;;;;;;;;;;;;;
2022/11/13 00:10:34;;;;;;;7.1;3.7;;;;;;;;;;;;;
2022/11/13 00:13:03;;;;;;;6.7;3.6;;;;;;;;;;;;;
2022/11/13 00:15:29;;;;;;;4.6;3.3;;;;;;;;;;;;;
2022/11/13 00:17:56;;;;;;;4.5;3.4;;;;;;;;;;;;;
2022/11/13 00:20:27;;;;;;;4.7;3.4;;;;;;;;;;;;;
2022/11/13 00:22:57;;;;;;;4.6;3.6;;;;;;;;;;;;;
2022/11/13 00:25:24;;;;;;;4.6;3.4;;;;;;;;;;;;;
2022/11/13 00:27:52;;;;;;;5;3.2;;;;;;;;;;;;;
2022/11/13 00:30:17;;;;;;;4.4;2.7;;;;;;;;;;;;;
2022/11/13 00:32:43;;;;;;;3.1;2.5;;;;;;;;;;;;;
2022/11/13 00:35:08;;;;;;;3.8;2.9;;;;;;;;;;;;;
2022/11/13 00:37:33;;;;;;;4.2;3;;;;;;;;;;;;;
2022/11/13 00:39:58;;;;;;;6.1;4;;;;;;;;;;;;;
2022/11/13 00:42:23;;;;;;;5.4;3.5;;;;;;;;;;;;;
2022/11/13 00:44:48;;;;;;;5.5;3.8;;;;;;;;;;;;;
2022/11/13 00:47:13;;;;;;;5.9;4;;;;;;;;;;;;;
2022/11/13 00:49:39;;;;;;;5.7;4;;;;;;;;;;;;;
2022/11/13 00:52:04;;;;;;;5.4;3.5;;;;;;;;;;;;;
2022/11/13 00:54:30;;;;;;;4.7;3.3;;;;;;;;;;;;;
2022/11/13 00:56:56;;;;;;;5.6;3.6;;;;;;;;;;;;;
2022/11/13 00:59:21;;;;;;;4.6;3.4;;;;;;;;;;;;;
2022/11/13 01:01:47;;;;;;;5.6;3.7;;;;;;;;;;;;;
2022/11/13 01:04:12;;;;;;;6.6;3.5;;;;;;;;;;;;;
2022/11/13 01:06:39;;;;;;;5.6;4.5;;;;;;;;;;;;;
2022/11/13 01:09:04;;;;;;;5.5;4.7;;;;;;;;;;;;;
2022/11/13 01:11:31;;;;;;;7.8;4.6;;;;;;;;;;;;;
2022/11/13 01:13:56;;;;;;;6.2;4.6;;;;;;;;;;;;;
2022/11/13 01:16:21;;;;;;;5.8;4.9;;;;;;;;;;;;;
2022/11/13 01:18:46;;;;;;;6.1;5.4;;;;;;;;;;;;;
2022/11/13 01:21:12;;;;;;;5.7;5.1;;;;;;;;;;;;;
2022/11/13 01:23:37;;;;;;;6.1;5.2;;;;;;;;;;;;;
2022/11/13 01:26:03;;;;;;;8.2;5.3;;;;;;;;;;;;;
2022/11/13 01:28:28;;;;;;;6.6;4.9;;;;;;;;;;;;;
2022/11/13 01:30:55;;;;;;;6.2;5;;;;;;;;;;;;;
2022/11/13 01:33:20;;;;;;;5.6;4.8;;;;;;;;;;;;;
2022/11/13 01:35:53;;;;;;;7.2;5.3;;;;;;;;;;;;;
2022/11/13 01:38:18;;;;;;;6.4;5.6;;;;;;;;;;;;;
2022/11/13 01:40:43;;;;;;;5.7;5.1;;;;;;;;;;;;;
2022/11/13 01:43:08;;;;;;;6.3;4.8;;;;;;;;;;;;;
2022/11/13 01:45:33;;;;;;;8.8;5.1;;;;;;;;;;;;;
2022/11/13 01:47:58;;;;;;;22.6;5.7;;;;;;;;;;;;;
2022/11/13 01:50:24;;;;;;;10;5;;;;;;;;;;;;;
2022/11/13 01:52:49;;;;;;;7.3;5;;;;;;;;;;;;;
2022/11/13 01:55:14;;;;;;;9.1;4.9;;;;;;;;;;;;;
2022/11/13 01:57:40;;;;;;;5.2;4.7;;;;;;;;;;;;;
2022/11/13 02:00:05;;;;;;;5.1;4.2;;;;;;;;;;;;;
2022/11/13 02:02:30;;;;;;;5.4;4.7;;;;;;;;;;;;;
2022/11/13 02:04:55;;;;;;;9.6;5;;;;;;;;;;;;;
2022/11/13 02:07:20;;;;;;;5;4.5;;;;;;;;;;;;;
2022/11/13 02:09:45;;;;;;;6.4;5.6;;;;;;;;;;;;;
2022/11/13 02:12:11;;;;;;;33.2;7.5;;;;;;;;;;;;;
2022/11/13 02:14:36;;;;;;;15.9;5.7;;;;;;;;;;;;;
2022/11/13 02:17:01;;;;;;;6.1;4.5;;;;;;;;;;;;;
2022/11/13 02:19:28;;;;;;;17.2;6.6;;;;;;;;;;;;;
2022/11/13 02:21:53;;;;;;;5.8;5.1;;;;;;;;;;;;;
2022/11/13 02:24:18;;;;;;;6.3;5.1;;;;;;;;;;;;;
2022/11/13 02:26:44;;;;;;;5.7;5;;;;;;;;;;;;;
2022/11/13 02:29:09;;;;;;;15.5;5.9;;;;;;;;;;;;;
2022/11/13 02:31:35;;;;;;;5.4;4.9;;;;;;;;;;;;;
2022/11/13 02:34:00;;;;;;;13.8;6.1;;;;;;;;;;;;;
2022/11/13 02:36:26;;;;;;;8.9;7.1;;;;;;;;;;;;;
2022/11/13 02:38:51;;;;;;;8.8;6.8;;;;;;;;;;;;;
2022/11/13 02:41:16;;;;;;;7.7;6.3;;;;;;;;;;;;;
2022/11/13 02:43:42;;;;;;;6.6;5.8;;;;;;;;;;;;;
2022/11/13 02:46:09;;;;;;;5.5;4.9;;;;;;;;;;;;;
2022/11/13 02:48:34;;;;;;;5.4;4.8;;;;;;;;;;;;;
2022/11/13 02:50:59;;;;;;;5.4;4.3;;;;;;;;;;;;;
2022/11/13 02:53:25;;;;;;;4.7;4.2;;;;;;;;;;;;;
2022/11/13 02:55:50;;;;;;;5;4.3;;;;;;;;;;;;;
2022/11/13 02:58:16;;;;;;;4.8;3.8;;;;;;;;;;;;;
2022/11/13 03:00:41;;;;;;;4.8;4;;;;;;;;;;;;;
2022/11/13 03:03:07;;;;;;;3.1;2.6;;;;;;;;;;;;;
2022/11/13 03:05:33;;;;;;;3.8;2.7;;;;;;;;;;;;;
2022/11/13 03:07:58;;;;;;;3.1;2.4;;;;;;;;;;;;;
2022/11/13 03:10:23;;;;;;;3.1;2.1;;;;;;;;;;;;;
2022/11/13 03:12:50;;;;;;;4.3;2.4;;;;;;;;;;;;;
2022/11/13 03:15:15;;;;;;;2.2;2;;;;;;;;;;;;;
2022/11/13 03:17:40;;;;;;;2.4;1.8;;;;;;;;;;;;;
2022/11/13 03:20:06;;;;;;;2.5;1.7;;;;;;;;;;;;;
2022/11/13 03:22:30;;;;;;;3.3;1.8;;;;;;;;;;;;;
2022/11/13 03:24:56;;;;;;;2.8;1.7;;;;;;;;;;;;;
2022/11/13 03:27:21;;;;;;;3.3;2.3;;;;;;;;;;;;;
2022/11/13 03:29:47;;;;;;;4.5;2.4;;;;;;;;;;;;;
2022/11/13 03:32:12;;;;;;;2.4;2;;;;;;;;;;;;;
2022/11/13 03:34:38;;;;;;;2.2;1.8;;;;;;;;;;;;;
2022/11/13 03:37:02;;;;;;;4;2.2;;;;;;;;;;;;;
2022/11/13 03:39:28;;;;;;;3;2.3;;;;;;;;;;;;;
2022/11/13 03:41:53;;;;;;;3;2.2;;;;;;;;;;;;;
2022/11/13 03:44:18;;;;;;;2.6;1.9;;;;;;;;;;;;;
2022/11/13 03:46:43;;;;;;;2.5;2;;;;;;;;;;;;;
2022/11/13 03:49:08;;;;;;;4.8;3;;;;;;;;;;;;;
2022/11/13 03:51:34;;;;;;;9.3;4.3;;;;;;;;;;;;;
2022/11/13 03:53:59;;;;;;;9.7;5.4;;;;;;;;;;;;;
2022/11/13 03:56:25;;;;;;;3.8;2.2;;;;;;;;;;;;;
2022/11/13 03:59:07;;;;;;;2.4;1.9;;;;;;;;;;;;;
2022/11/13 04:02:31;;;;;;;1.8;1.5;;;;;;;3.83;92.8125;943.9003;;;;
2022/11/13 04:04:56;;;;;;;2.1;1.6;;;;;;;3.69;92.78223;943.8186;;;;
2022/11/13 04:07:25;;;;;;;2;1.6;;;;;;;3.69;92.49023;943.806;;;;
2022/11/13 04:09:51;;;;;;;2.6;1.7;;;;;;;3.79;92.20898;943.759;;;;
2022/11/13 04:12:16;;;;;;;1.6;1.5;;;;;;;3.72;92.62012;943.7983;;;;
2022/11/13 04:14:43;;;;;;;1.9;1.6;;;;;;;3.8;92.29102;943.7674;;;;
2022/11/13 04:17:08;;;;;;;2.3;1.7;;;;;;;3.8;91.94238;943.695;;;;
2022/11/13 04:19:59;;;;;;;4.6;3.1;;;;;;;3.83;91.57813;943.6964;;;;
2022/11/13 04:22:31;;;;;;;4.9;3.3;;;;;;;3.69;90.93945;943.5941;;;;
2022/11/13 04:25:01;;;;;;;4.7;3.2;;;;;;;3.73;90.30859;943.6563;;;;
2022/11/13 04:27:26;;;;;;;4.8;3.2;;;;;;;3.68;90.22949;943.5722;;;;
2022/11/13 04:29:58;;;;;;;4.2;2.7;;;;;;;3.71;90.0332;943.658;;;;
2022/11/13 04:32:23;;;;;;;5.1;3.6;;;;;;;3.68;90.5332;943.5709;;;;
2022/11/13 04:34:51;;;;;;;5.4;3.5;;;;;;;3.43;91.89648;943.514;;;;
2022/11/13 04:37:16;;;;;;;3.2;2.8;;;;;;;3.51;92.12598;943.4741;;;;
2022/11/13 04:39:46;;;;;;;3;2.5;;;;;;;3.48;92.2998;943.4436;;;;
2022/11/13 04:44:38;;;;;;;2.9;2.2;;;;;;;3.55;92.02148;943.3741;;;;
2022/11/13 04:47:03;;;;;;;2.5;2;;;;;;;3.57;91.95703;943.3214;;;;
2022/11/13 04:49:29;;;;;;;3.4;2.2;;;;;;;3.63;91.68066;943.3223;;;;
2022/11/13 04:51:54;;;;;;;3.2;2.4;;;;;;;3.66;91.63086;943.3527;;;;
2022/11/13 04:54:19;;;;;;;2.5;2.2;;;;;;;3.64;91.70508;943.3527;;;;
2022/11/13 04:56:44;;;;;;;3.5;2.7;;;;;;;3.59;91.8418;943.2525;;;;
2022/11/13 04:59:10;;;;;;;8.5;5.7;;;;;;;3.55;92.34863;943.2545;;;;
2022/11/13 05:01:35;;;;;;;11.1;7.5;;;;;;;3.54;92.11133;943.2645;;;;
2022/11/13 05:04:00;;;;;;;8.7;4.7;;;;;;;3.53;92.30957;943.2512;;;;
2022/11/13 05:06:28;;;;;;;5.7;3.5;;;;;;;3.36;93.37207;943.2498;;;;
2022/11/13 05:08:53;;;;;;;4.9;2.7;;;;;;;3.28;94.17383;943.0895;;;;
2022/11/13 05:11:18;;;;;;;6.6;3.3;;;;;;;3.31;94.06934;943.0927;;;;
2022/11/13 05:13:44;;;;;;;2.6;1.9;;;;;;;3.22;94.65625;943.0019;;;;
2022/11/13 05:17:27;;;;;;;2.5;1.8;;;;;;;3.11;95.43945;942.9325;;;;
2022/11/13 05:19:52;;;;;;;3.6;3;;;;;;;3.01;96.73926;942.9766;;;;
2022/11/13 05:22:24;;;;;;;3.5;3;;;;;;;2.99;96.81348;943.0461;;;;
2022/11/13 05:24:53;;;;;;;2.8;2.4;;;;;;;3.1;97.00879;943.0382;;;;
2022/11/13 05:27:19;;;;;;;2.5;2.1;;;;;;;3.29;96.06348;942.9476;;;;
2022/11/13 05:29:48;;;;;;;2.8;1.6;;;;;;;3.3;95.30273;942.8656;;;;
2022/11/13 05:32:13;;;;;;;3;1.7;;;;;;;3.31;95.49316;942.8155;;;;
2022/11/13 05:34:41;;;;;;;2.7;2.3;;;;;;;3.36;95.31641;942.8078;;;;
2022/11/13 05:37:07;;;;;;;3.6;2.4;;;;;;;3.39;95.01953;942.7941;;;;
2022/11/13 05:39:37;;;;;;;4.6;2.8;;;;;;;3.37;94.70117;942.6789;;;;
2022/11/13 05:42:02;;;;;;;12.8;5.8;;;;;;;3.31;94.96973;942.7347;;;;
2022/11/13 05:44:31;;;;;;;9.6;3.8;;;;;;;3.5;94.25781;942.7189;;;;
2022/11/13 05:46:56;;;;;;;12;5.2;;;;;;;3.64;93.18652;942.6902;;;;
2022/11/13 05:49:24;;;;;;;8.4;3.9;;;;;;;3.65;92.86426;942.6287;;;;
2022/11/13 05:58:11;;;;;;;5;3;;;;;;;3.49;93.79492;942.5553;;;;
2022/11/13 06:00:54;;;;;;;4.3;2.9;;;;;;;3.49;93.97656;942.5563;;;;
2022/11/13 06:03:22;;;;;;;5.3;2.6;;;;;;;3.64;92.92773;942.5846;;;;
2022/11/13 06:05:49;;;;;;;5;2.9;;;;;;;3.65;92.16797;942.509;;;;
2022/11/13 06:08:15;;;;;;;4.5;3.1;;;;;;;3.71;92.20215;942.6021;;;;
2022/11/13 06:10:42;;;;;;;6.2;2.9;;;;;;;3.78;91.34082;942.5908;;;;
2022/11/13 06:13:07;;;;;;;5.7;2.8;;;;;;;3.81;90.60742;942.471;;;;
2022/11/13 06:15:34;;;;;;;5.5;3.3;;;;;;;3.78;90.61035;942.3992;;;;
2022/11/13 06:18:02;;;;;;;4.4;3.1;;;;;;;3.66;91.13477;942.4705;;;;
2022/11/13 06:20:27;;;;;;;4.9;2.6;;;;;;;3.67;91.00293;942.4025;;;;
2022/11/13 06:22:53;;;;;;;4.2;3;;;;;;;3.61;90.37207;942.4306;;;;
2022/11/13 06:25:18;;;;;;;10.8;5.5;;;;;;;3.63;90.06348;942.3428;;;;
2022/11/13 06:27:45;;;;;;;6.1;4.1;;;;;;;3.6;89.99902;942.2346;;;;
2022/11/13 06:30:12;;;;;;;5.8;2.9;;;;;;;3.57;90.21777;942.2572;;;;
2022/11/13 06:32:37;;;;;;;4.7;2.8;;;;;;;3.48;89.6377;942.2495;;;;
2022/11/13 06:35:02;;;;;;;4.5;2.9;;;;;;;3.47;89.64453;942.3212;;;;
2022/11/13 06:37:30;;;;;;;4.3;2.6;;;;;;;3.46;89.91406;942.3211;;;;
2022/11/13 06:39:55;;;;;;;11.4;7.4;;;;;;;3.45;90.22559;942.1692;;;;
2022/11/13 06:45:37;;;;;;;11.5;7.9;;;;;;;3.31;92.07129;942.2664;;;;
2022/11/13 06:48:03;;;;;;;13.2;9.5;;;;;;;3.3;92.18164;942.2517;;;;
2022/11/13 06:50:28;;;;;;;18.1;12.4;;;;;;;3.34;91.75195;942.269;;;;
2022/11/13 06:52:59;;;;;;;12.7;9.6;;;;;;;3.47;91.16504;942.2547;;;;
2022/11/13 06:55:29;;;;;;;12.6;8.9;;;;;;;3.46;90.97949;942.1083;;;;
2022/11/13 06:58:22;;;;;;;6.9;4.2;;;;;;;3.46;90.30762;942.2039;;;;
2022/11/13 07:00:51;;;;;;;4;3.4;;;;;;;3.58;90.34375;942.29;;;;
2022/11/13 07:03:16;;;;;;;5.9;4.5;;;;;;;4.06;93.49316;942.3356;;;;
2022/11/13 07:05:41;;;;;;;4.5;3.9;;;;;;;4.59;89.73633;942.2584;;;;
2022/11/13 07:08:06;;;;;;;5.7;4.2;;;;;;;4.59;83.2168;942.2166;;;;
2022/11/13 07:10:32;;;;;;;6;4.7;;;;;;;4.63;83.62891;942.1213;;;;
2022/11/13 07:12:57;;;;;;;6.3;4.7;;;;;;;5.2;80.76367;941.9841;;;;
2022/11/13 07:15:29;;;;;;;6.4;4.9;;;;;;;5.8;80.17773;941.9842;;;;
2022/11/13 07:17:54;;;;;;;5.4;4.6;;;;;;;6.14;77.23438;941.9192;;;;
2022/11/13 07:20:20;;;;;;;5.9;4.9;;;;;;;6.35;74.52441;941.8937;;;;
2022/11/13 07:22:46;;;;;;;5.4;4.1;;;;;;;6.5;74.19043;941.8663;;;;
2022/11/13 07:25:11;;;;;;;4.5;3.5;;;;;;;6.68;72.38867;941.8674;;;;
2022/11/13 07:27:39;;;;;;;3.9;3.3;;;;;;;7.29;70.51855;941.834;;;;
2022/11/13 07:30:04;;;;;;;4;3.6;;;;;;;7.91;68.00977;941.7108;;;;
2022/11/13 07:32:29;;;;;;;3.9;3.1;;;;;;;8.29;67.88965;941.6872;;;;
2022/11/13 07:36:23;;;;;;;4.6;3.3;;;;;;;8.27;67.3623;941.8922;;;;
2022/11/13 07:38:45;;;;;;;7.1;4.9;;;;;;;8.7;64.31543;941.9387;;;;
2022/11/13 07:49:37;;;;;;;3.1;2.8;;;;;;;10.41;62.16211;941.7488;;;;
2022/11/13 07:52:02;;;;;;;2.9;2.7;;;;;;;10.97;59.08789;941.6809;;;;
2022/11/13 07:54:30;;;;;;;2.5;2.3;;;;;;;11.84;55.70215;941.526;;;;
2022/11/13 07:56:55;;;;;;;2.5;2.3;;;;;;;11.74;54.90039;941.4606;;;;
2022/11/13 07:59:24;;;;;;;3.1;2.8;;;;;;;11.45;54.1875;941.4604;;;;
2022/11/13 08:01:49;;;;;;;2.8;2.6;;;;;;;11.8;53.5332;941.4526;;;;
2022/11/13 08:04:15;;;;;;;3.4;3.1;;;;;;;11.8;52.28516;941.5684;;;;
2022/11/13 08:06:40;;;;;;;4;3.6;;;;;;;11.49;54.40039;941.5598;;;;
2022/11/13 08:09:06;;;;;;;3.6;3.3;;;;;;;12.12;52.54102;941.5616;;;;
2022/11/13 08:11:31;;;;;;;3.1;2.8;;;;;;;12.37;52.41113;941.5911;;;;
2022/11/13 08:13:57;;;;;;;3.5;3;;;;;;;13.45;49.74805;941.5193;;;;
2022/11/13 08:16:23;;;;;;;2.6;2.4;;;;;;;14.25;48.07813;941.4677;;;;
2022/11/13 08:18:50;;;;;;;3.4;3;;;;;;;14.32;47.11816;941.442;;;;
2022/11/13 08:21:15;;;;;;;4.2;3.3;;;;;;;14.42;47.04785;941.5105;;;;
2022/11/13 08:23:42;;;;;;;6.5;4.6;;;;;;;13.19;47.7998;941.5417;;;;
2022/11/13 08:26:07;;;;;;;3.7;3.4;;;;;;;12.33;49.9873;941.5437;;;;
2022/11/13 08:28:34;;;;;;;4;3.4;;;;;;;12.03;51.14453;941.6605;;;;
2022/11/13 08:30:59;;;;;;;5.4;4.7;;;;;;;10.92;53.75586;941.6572;;;;
2022/11/13 08:33:26;;;;;;;6.2;4.5;;;;;;;10.46;56.33594;941.5656;;;;
2022/11/13 08:35:51;;;;;;;3.7;3.4;;;;;;;10.18;57.72461;941.6017;;;;
2022/11/13 08:38:20;;;;;;;4.2;3.5;;;;;;;9.87;56.69141;941.644;;;;
2022/11/13 08:40:50;;;;;;;4.2;3.8;;;;;;;9.32;59.61523;941.6761;;;;
2022/11/13 08:43:15;;;;;;;4.4;4;;;;;;;8.57;62.10254;941.6933;;;;
2022/11/13 08:45:42;;;;;;;5;3.6;;;;;;;7.38;66.80469;941.7263;;;;
2022/11/13 08:48:07;;;;;;;3.8;3.4;;;;;;;7.07;68.63574;941.7358;;;;
2022/11/13 08:50:35;;;;;;;4.2;3.7;;;;;;;6.84;70.5918;941.8232;;;;
2022/11/13 08:53:00;;;;;;;3.3;3;;;;;;;6.04;74.47168;941.918;;;;
2022/11/13 08:55:27;;;;;;;3.4;3.1;;;;;;;6.18;74.55176;941.8415;;;;
2022/11/13 08:57:52;;;;;;;3.4;3.1;;;;;;;6.29;74.93262;941.8137;;;;
2022/11/13 09:00:22;;;;;;;3.4;3.1;;;;;;;6.25;75.66113;941.8575;;;;
2022/11/13 09:02:50;;;;;;;3.6;3.2;;;;;;;6.23;76.68555;941.8149;;;;
2022/11/13 09:05:15;;;;;;;3.7;3.2;;;;;;;5.97;78.36816;941.8661;;;;
2022/11/13 09:07:43;;;;;;;6.2;3.6;;;;;;;5.97;79.01074;941.9333;;;;
2022/11/13 09:10:08;;;;;;;4;3.6;;;;;;;6.01;79.7666;941.9043;;;;
2022/11/13 09:12:35;;;;;;;4.2;3.4;;;;;;;6.07;80.84961;941.8809;;;;
2022/11/13 09:15:01;;;;;;;5.5;3.3;;;;;;;5.87;81.95117;941.9242;;;;
2022/11/13 09:17:32;;;;;;;3.5;3.2;;;;;;;6.08;81.34863;941.92;;;;
2022/11/13 09:20:00;;;;;;;3.3;3;;;;;;;6.25;81.4043;941.8315;;;;
2022/11/13 09:22:25;;;;;;;3.2;3;;;;;;;6.48;80.48535;941.8887;;;;
2022/11/13 09:24:54;;;;;;;3.9;3.5;;;;;;;6.54;80.26953;941.9038;;;;
2022/11/13 09:27:19;;;;;;;4;3.6;;;;;;;6.63;79.59766;941.8848;;;;
2022/11/13 09:29:47;;;;;;;3.5;3.2;;;;;;;6.69;80.0625;941.8519;;;;
2022/11/13 09:32:12;;;;;;;3.2;3;;;;;;;6.91;79.39941;941.7767;;;;
2022/11/13 09:34:37;;;;;;;3.5;3.2;;;;;;;7.05;77.69336;941.8192;;;;
2022/11/13 09:37:02;;;;;;;4.4;3.8;;;;;;;7.11;78.375;941.8542;;;;
2022/11/13 09:39:27;;;;;;;4.2;3.8;;;;;;;7.16;78.16602;941.8127;;;;
2022/11/13 09:41:55;;;;;;;3.6;3.3;;;;;;;7.21;78.70801;941.8262;;;;
2022/11/13 09:44:19;;;;;;;4.1;3.6;;;;;;;7.36;77.79395;941.7107;;;;
2022/11/13 09:46:45;;;;;;;4.8;4.2;;;;;;;7.41;79.33594;941.7949;;;;
2022/11/13 09:49:10;;;;;;;3.5;3.2;;;;;;;7.72;78.90332;941.7563;;;;
2022/11/13 09:51:35;;;;;;;3.5;3.2;;;;;;;7.87;76.35742;941.8684;;;;
2022/11/13 09:54:00;;;;;;;4.2;3.8;;;;;;;7.85;76.99902;941.7806;;;;
2022/11/13 09:56:31;;;;;;;4.5;3.6;;;;;;;7.86;75.65039;941.822;;;;
2022/11/13 09:58:55;;;;;;;4;3.6;;;;;;;7.45;78.54883;941.7332;;;;
2022/11/13 10:01:20;;;;;;;4.3;3.4;;;;;;;7.9;77.71094;941.7073;;;;
2022/11/13 10:03:51;;;;;;;3.8;3.4;;;;;;;7.72;78.8916;941.7048;;;;
2022/11/13 10:06:15;;;;;;;3.7;3.4;;;;;;;7.66;77.84766;941.6565;;;;
2022/11/13 10:08:41;;;;;;;3.9;3.5;;;;;;;7.99;77.86328;941.5391;;;;
2022/11/13 10:11:06;;;;;;;4.2;3.8;;;;;;;7.63;78.42285;941.4705;;;;
2022/11/13 10:13:31;;;;;;;5.1;4.1;;;;;;;7.79;79.5293;941.4197;;;;
2022/11/13 10:16:05;;;;;;;4;3.6;;;;;;;8.32;77.01465;941.4506;;;;
2022/11/13 10:18:31;;;;;;;3.6;3.3;;;;;;;8.45;74.35645;941.4041;;;;
2022/11/13 10:20:57;;;;;;;4;3.6;;;;;;;8.28;74.87207;941.3101;;;;
2022/11/13 10:23:26;;;;;;;3.7;3.4;;;;;;;7.98;75.28516;941.2565;;;;
2022/11/13 10:25:51;;;;;;;3.8;3.4;;;;;;;8.04;77.08789;941.2194;;;;
2022/11/13 10:28:16;;;;;;;3.6;3.3;;;;;;;8;78.19434;941.1555;;;;
2022/11/13 10:30:42;;;;;;;3.2;2.9;;;;;;;8.29;75.94043;941.1127;;;;
2022/11/13 10:33:08;;;;;;;3.5;3.2;;;;;;;8.07;75.57324;941.0566;;;;
2022/11/13 10:35:34;;;;;;;3.7;3.4;;;;;;;7.9;76.98438;941.0984;;;;
2022/11/13 10:37:59;;;;;;;3.9;3.5;;;;;;;7.36;79.92676;941.0391;;;;
2022/11/13 10:40:28;;;;;;;3.4;3.1;;;;;;;7.05;81.90625;940.9481;;;;
2022/11/13 10:42:53;;;;;;;3.8;3.5;;;;;;;6.89;83.63184;941.0037;;;;
2022/11/13 10:45:18;;;;;;;4.6;4.2;;;;;;;6.94;84.61426;941.0092;;;;
2022/11/13 10:47:47;;;;;;;4.1;3.2;;;;;;;6.67;83.41797;940.9009;;;;
2022/11/13 10:50:12;;;;;;;4.5;4.1;;;;;;;6.84;84.91211;940.7989;;;;
2022/11/13 10:52:41;;;;;;;4.3;3.9;;;;;;;6.86;83.99805;940.8833;;;;
2022/11/13 10:55:06;;;;;;;4.8;4.3;;;;;;;;;;;;;
2022/11/13 10:57:33;;;;;;;4.7;4.3;;;;;;;;;;;;;
2022/11/13 10:59:58;;;;;;;5.6;4.6;;;;;;;;;;;;;
2022/11/13 11:02:23;;;;;;;6.5;5;;;;;;;;;;;;;
2022/11/13 11:04:49;;;;;;;6.1;4.6;;;;;;;;;;;;;
2022/11/13 11:07:14;;;;;;;5.9;5;;;;;;;;;;;;;
2022/11/13 11:09:40;;;;;;;6.2;4.9;;;;;;;;;;;;;
2022/11/13 11:12:19;;;;;;;6.2;5.6;;;;;;;;;;;;;
2022/11/13 11:14:29;;;;;;;6.5;5.5;;;;;;;;;;;;;
2022/11/13 11:16:54;;;;;;;6;5.2;;;;;;;;;;;;;
2022/11/13 11:19:20;;;;;;;6.3;5.7;;;;;;;;;;;;;
2022/11/13 11:21:45;;;;;;;6.3;4.8;;;;;;;;;;;;;
2022/11/13 11:24:12;;;;;;;5.5;5;;;;;;;;;;;;;
2022/11/13 11:26:37;;;;;;;5.4;4.9;;;;;;;;;;;;;
2022/11/13 11:29:04;;;;;;;5.3;4.7;;;;;;;;;;;;;
2022/11/13 11:31:29;;;;;;;5.1;4.6;;;;;;;;;;;;;
2022/11/13 11:33:54;;;;;;;3.9;3.5;;;;;;;;;;;;;
2022/11/13 11:36:19;;;;;;;3.6;3.2;;;;;;;;;;;;;
2022/11/13 11:38:44;;;;;;;3.4;3.1;;;;;;;;;;;;;
2022/11/13 11:41:10;;;;;;;3.9;3.1;;;;;;;;;;;;;
2022/11/13 11:43:34;;;;;;;3;2.8;;;;;;;;;;;;;
2022/11/13 11:46:01;;;;;;;3.2;2.9;;;;;;;;;;;;;
2022/11/13 11:48:26;;;;;;;3;2.8;;;;;;;;;;;;;
2022/11/13 11:50:51;;;;;;;3.3;3;;;;;;;;;;;;;
2022/11/13 11:53:16;;;;;;;2.9;2.6;;;;;;;;;;;;;
2022/11/13 11:55:42;;;;;;;3.2;2.9;;;;;;;;;;;;;
2022/11/13 11:58:07;;;;;;;2.6;2.4;;;;;;;;;;;;;
2022/11/13 12:00:32;;;;;;;2.5;2.3;;;;;;;;;;;;;
2022/11/13 12:02:57;;;;;;;2.7;2.5;;;;;;;;;;;;;
2022/11/13 12:05:23;;;;;;;2.9;2.7;;;;;;;;;;;;;
2022/11/13 12:07:48;;;;;;;3;2.8;;;;;;;;;;;;;
2022/11/13 12:10:13;;;;;;;2.9;2.7;;;;;;;;;;;;;
2022/11/13 12:12:38;;;;;;;2.7;2.5;;;;;;;;;;;;;
2022/11/13 12:15:05;;;;;;;2.7;2.5;;;;;;;;;;;;;
2022/11/13 12:17:31;;;;;;;2.3;2.2;;;;;;;;;;;;;
2022/11/13 12:19:56;;;;;;;2.7;2.5;;;;;;;;;;;;;
2022/11/13 12:22:21;;;;;;;2.5;2.3;;;;;;;;;;;;;
2022/11/13 12:24:46;;;;;;;2.6;2.4;;;;;;;;;;;;;
2022/11/13 12:27:12;;;;;;;2.5;2.3;;;;;;;;;;;;;
2022/11/13 12:29:36;;;;;;;2.4;2.2;;;;;;;;;;;;;
2022/11/13 12:32:02;;;;;;;2.7;2.5;;;;;;;;;;;;;
2022/11/13 12:34:27;;;;;;;2.5;2.3;;;;;;;;;;;;;
2022/11/13 12:36:52;;;;;;;2.7;2.5;;;;;;;;;;;;;
2022/11/13 12:39:18;;;;;;;2.7;2.5;;;;;;;;;;;;;
2022/11/13 12:41:43;;;;;;;2.6;2.4;;;;;;;;;;;;;
2022/11/13 12:44:09;;;;;;;2.5;2.3;;;;;;;;;;;;;
2022/11/13 12:46:35;;;;;;;2.6;2.4;;;;;;;;;;;;;
2022/11/13 12:49:00;;;;;;;2.7;2.5;;;;;;;;;;;;;
2022/11/13 12:51:26;;;;;;;2.3;2.1;;;;;;;;;;;;;
2022/11/13 12:53:51;;;;;;;2.9;2.7;;;;;;;;;;;;;
2022/11/13 12:56:18;;;;;;;3;2.5;;;;;;;;;;;;;
2022/11/13 12:58:44;;;;;;;2.6;2.4;;;;;;;;;;;;;
2022/11/13 13:01:09;;;;;;;2.9;2.7;;;;;;;;;;;;;
2022/11/13 13:03:34;;;;;;;2.7;2.5;;;;;;;;;;;;;
2022/11/13 13:05:59;;;;;;;2.6;2.4;;;;;;;;;;;;;
2022/11/13 13:08:25;;;;;;;2.8;2.6;;;;;;;;;;;;;
2022/11/13 13:10:50;;;;;;;2.8;2.6;;;;;;;;;;;;;
2022/11/13 13:13:15;;;;;;;2.8;2.3;;;;;;;;;;;;;
2022/11/13 13:15:42;;;;;;;2.4;2.2;;;;;;;;;;;;;
2022/11/13 13:18:07;;;;;;;2.7;2.5;;;;;;;;;;;;;
2022/11/13 13:20:32;;;;;;;2.8;2.6;;;;;;;;;;;;;
2022/11/13 13:22:57;;;;;;;3.6;2.5;;;;;;;;;;;;;
2022/11/13 13:25:22;;;;;;;2.8;2.6;;;;;;;;;;;;;
2022/11/13 13:27:47;;;;;;;3;2.7;;;;;;;;;;;;;
2022/11/13 13:30:14;;;;;;;3.1;2.9;;;;;;;;;;;;;
2022/11/13 13:32:39;;;;;;;3.4;3.1;;;;;;;;;;;;;
2022/11/13 13:35:04;;;;;;;3.4;3.1;;;;;;;;;;;;;
2022/11/13 13:37:29;;;;;;;3.5;3.2;;;;;;;;;;;;;
2022/11/13 13:39:55;;;;;;;3;2.7;;;;;;;;;;;;;
2022/11/13 13:42:20;;;;;;;3.5;3.2;;;;;;;;;;;;;
2022/11/13 13:44:47;;;;;;;3.5;3.2;;;;;;;;;;;;;
2022/11/13 13:47:13;;;;;;;3.4;3.1;;;;;;;;;;;;;
2022/11/13 13:49:42;;;;;;;3.7;3.4;;;;;;;;;;;;;
2022/11/13 13:52:07;;;;;;;3.8;3.5;;;;;;;;;;;;;
2022/11/13 13:54:32;;;;;;;3.5;3.2;;;;;;;;;;;;;
2022/11/13 13:57:15;;;;;;;4.1;3.7;;;;;;;;;;;;;
2022/11/13 13:59:22;;;;;;;3.6;3.3;;;;;;;;;;;;;
2022/11/13 14:01:47;;;;;;;3.8;3.4;;;;;;;;;;;;;
2022/11/13 14:04:12;;;;;;;3.4;3.1;;;;;;;;;;;;;
2022/11/13 14:06:38;;;;;;;3.4;3.1;;;;;;;;;;;;;
2022/11/13 14:09:03;;;;;;;3.3;3;;;;;;;;;;;;;
2022/11/13 14:11:30;;;;;;;3.5;3.2;;;;;;;;;;;;;
2022/11/13 14:13:55;;;;;;;3.3;3;;;;;;;;;;;;;
2022/11/13 14:16:20;;;;;;;3.6;3.3;;;;;;;;;;;;;
2022/11/13 14:18:45;;;;;;;4;3.6;;;;;;;;;;;;;
2022/11/13 14:21:10;;;;;;;4;3.6;;;;;;;;;;;;;
2022/11/13 14:23:36;;;;;;;3.6;3.3;;;;;;;;;;;;;
2022/11/13 14:26:01;;;;;;;3.4;3.1;;;;;;;;;;;;;
2022/11/13 14:28:27;;;;;;;3.6;3.3;;;;;;;;;;;;;
2022/11/13 14:30:53;;;;;;;3.7;3.4;;;;;;;;;;;;;
2022/11/13 14:33:18;;;;;;;3.4;3.1;;;;;;;;;;;;;
2022/11/13 14:35:43;;;;;;;3.3;3.1;;;;;;;;;;;;;
2022/11/13 14:40:50;;;;;;;3;2.8;;;;;;;;;;;;;
2022/11/13 14:43:16;;;;;;;3.7;3.4;;;;;;;;;;;;;
2022/11/13 14:45:43;;;;;;;3.5;3.3;;;;;;;;;;;;;
2022/11/13 14:48:08;;;;;;;3.9;3.6;;;;;;;;;;;;;
2022/11/13 14:50:36;;;;;;;4.1;3.7;;;;;;;;;;;;;
2022/11/13 14:53:01;;;;;;;4.1;3.7;;;;;;;;;;;;;
2022/11/13 14:55:26;;;;;;;4;3.7;;;;;;;;;;;;;
2022/11/13 14:57:51;;;;;;;4.6;4.2;;;;;;;;;;;;;
2022/11/13 15:00:17;;;;;;;4.7;4.3;;;;;;;;;;;;;
2022/11/13 15:02:43;;;;;;;13.6;12.1;;;;;;;;;;;;;
2022/11/13 15:05:10;;;;;;;5.3;4.8;;;;;;;;;;;;;
2022/11/13 15:07:35;;;;;;;5.5;5;;;;;;;;;;;;;
2022/11/13 15:10:02;;;;;;;6.4;5.5;;;;;;;;;;;;;
2022/11/13 15:12:27;;;;;;;7.6;6.4;;;;;;;;;;;;;
2022/11/13 15:15:16;;;;;;;9.7;8;;;;;;;;;;;;;
2022/11/13 15:17:42;;;;;;;8.1;6.6;;;;;;;;;;;;;
2022/11/13 15:20:06;;;;;;;7.8;6.4;;;;;;;;;;;;;
2022/11/13 15:22:31;;;;;;;7.1;6.4;;;;;;;;;;;;;
2022/11/13 15:24:59;;;;;;;12.5;10;;;;;;;;;;;;;
2022/11/13 15:27:24;;;;;;;12.9;10.2;;;;;;;;;;;;;
2022/11/13 15:30:17;;;;;;;8.9;7.6;;;;;;;;;;;;;
2022/11/13 15:32:45;;;;;;;7;6.3;;;;;;;;;;;;;
2022/11/13 15:35:10;;;;;;;8.7;7.8;;;;;;;;;;;;;
2022/11/13 15:37:35;;;;;;;12.5;9.9;;;;;;;;;;;;;
2022/11/13 15:40:00;;;;;;;13.3;10;;;;;;;;;;;;;
2022/11/13 15:42:25;;;;;;;11.5;9.4;;;;;;;;;;;;;
2022/11/13 15:44:52;;;;;;;13.2;9.5;;;;;;;;;;;;;
2022/11/13 15:47:17;;;;;;;6;5.4;;;;;;;;;;;;;
2022/11/13 15:49:42;;;;;;;4.6;4.2;;;;;;;;;;;;;
2022/11/13 15:52:09;;;;;;;6.2;5.6;;;;;;;;;;;;;
2022/11/13 15:54:34;;;;;;;9.1;8.2;;;;;;;;;;;;;
2022/11/13 15:57:02;;;;;;;9.7;8.7;;;;;;;;;;;;;
2022/11/13 15:59:27;;;;;;;8.4;7.3;;;;;;;;;;;;;
2022/11/13 16:01:55;;;;;;;9.1;7.6;;;;;;;;;;;;;
2022/11/13 16:04:18;;;;;;;8.6;7.6;;;;;;;;;;;;;
2022/11/13 16:06:43;;;;;;;9.1;7.5;;;;;;;;;;;;;
2022/11/13 16:09:08;;;;;;;8.5;7.5;;;;;;;;;;;;;
2022/11/13 16:11:35;;;;;;;10;7.3;;;;;;;;;;;;;
2022/11/13 16:14:33;;;;;;;9.6;8.4;;;;;;;;;;;;;
2022/11/13 16:16:46;;;;;;;8.7;7.5;;;;;;;;;;;;;
2022/11/13 16:19:12;;;;;;;8.6;7.5;;;;;;;;;;;;;
2022/11/13 16:21:37;;;;;;;9.5;8.4;;;;;;;;;;;;;
2022/11/13 16:24:02;;;;;;;9.7;7.3;;;;;;;;;;;;;
2022/11/13 16:26:27;;;;;;;8.8;7.5;;;;;;;;;;;;;
2022/11/13 16:28:53;;;;;;;10.9;8.9;;;;;;;;;;;;;
2022/11/13 16:31:18;;;;;;;32.3;26.8;;;;;;;;;;;;;
2022/11/13 16:33:43;;;;;;;10.7;9.3;;;;;;;;;;;;;
2022/11/13 16:36:11;;;;;;;10.7;8.4;;;;;;;;;;;;;
2022/11/13 16:38:36;;;;;;;11;9.8;;;;;;;;;;;;;
2022/11/13 16:41:04;;;;;;;25.2;21.5;;;;;;;;;;;;;
2022/11/13 16:43:29;;;;;;;30.2;23.9;;;;;;;;;;;;;
2022/11/13 16:45:54;;;;;;;18.4;13.1;;;;;;;;;;;;;
2022/11/13 16:48:19;;;;;;;60.5;37.7;;;;;;;;;;;;;
2022/11/13 16:50:44;;;;;;;17.9;13.5;;;;;;;;;;;;;
2022/11/13 16:53:09;;;;;;;24.7;17.7;;;;;;;;;;;;;
2022/11/13 16:55:36;;;;;;;39.9;30.4;;;;;;;;;;;;;
2022/11/13 16:58:02;;;;;;;32.3;22.8;;;;;;;;;;;;;
2022/11/13 17:00:28;;;;;;;65;44.7;;;;;;;;;;;;;
2022/11/13 17:02:54;;;;;;;15.7;12.6;;;;;;;;;;;;;
2022/11/13 17:05:19;;;;;;;15.8;11.6;;;;;;;;;;;;;
2022/11/13 17:10:10;;;;;;;13.5;11.3;;;;;;;;;;;;;
2022/11/13 17:12:35;;;;;;;16.8;11.8;;;;;;;;;;;;;
2022/11/13 17:15:00;;;;;;;15.9;11.5;;;;;;;;;;;;;
2022/11/13 17:17:25;;;;;;;16.9;13.4;;;;;;;;;;;;;
2022/11/13 17:19:53;;;;;;;16.6;12.8;;;;;;;;;;;;;
2022/11/13 17:22:18;;;;;;;17.2;13.4;;;;;;;;;;;;;
2022/11/13 17:24:43;;;;;;;21.5;16.5;;;;;;;;;;;;;
2022/11/13 17:27:08;;;;;;;15.1;12.4;;;;;;;;;;;;;
2022/11/13 17:29:33;;;;;;;14.5;12.6;;;;;;;;;;;;;
2022/11/13 17:31:58;;;;;;;13;10.6;;;;;;;;;;;;;
2022/11/13 17:34:45;;;;;;;12.4;9.7;;;;;;;;;;;;;
2022/11/13 17:37:09;;;;;;;12.7;9.5;;;;;;;;;;;;;
2022/11/13 17:39:34;;;;;;;12.8;9.5;;;;;;;;;;;;;
2022/11/13 17:42:02;;;;;;;12;9.2;;;;;;;;;;;;;
2022/11/13 17:44:27;;;;;;;13;9.8;;;;;;;;;;;;;
2022/11/13 17:46:52;;;;;;;13.2;10.2;;;;;;;;;;;;;
2022/11/13 17:49:17;;;;;;;14.2;10.4;;;;;;;;;;;;;
2022/11/13 17:51:43;;;;;;;13.2;10;;;;;;;;;;;;;
2022/11/13 17:54:08;;;;;;;14.5;10.5;;;;;;;;;;;;;
2022/11/13 17:56:36;;;;;;;14.6;11.6;;;;;;;;;;;;;
2022/11/13 17:58:59;;;;;;;14.1;11;;;;;;;;;;;;;
2022/11/13 18:01:25;;;;;;;14.4;11.1;;;;;;;;;;;;;
2022/11/13 18:03:50;;;;;;;20.1;15.1;;;;;;;;;;;;;
2022/11/13 18:06:55;;;;;;;19.5;13.6;;;;;;;;;;;;;
2022/11/13 18:09:17;;;;;;;23.3;14.3;;;;;;;;;;;;;
2022/11/13 18:11:42;;;;;;;19.2;14;;;;;;;;;;;;;
2022/11/13 18:14:07;;;;;;;19.1;13.5;;;;;;;;;;;;;
2022/11/13 18:16:33;;;;;;;19.8;13.4;;;;;;;;;;;;;
2022/11/13 18:18:59;;;;;;;22.4;14.7;;;;;;;;;;;;;
2022/11/13 18:21:23;;;;;;;20.4;15.5;;;;;;;;;;;;;